Braceville, Illinois
Current Conditions -  °F | °C
As of 2:15 PM on Thursday 18 Dec 2014 (Local Time) from KC09 Reporting Station
Overcast Overcast  
Wind Chill: 19°   Ceiling: 1900
Heat Index: 27°   Visibility: 10mi
Dew Point: 20°   Wind: 7mph
Humidity: 77%   Direction: 300°WNW
Pressure: 30.23"   Gusts: NA
Location:  41.23°N, 88.26°W
Report Text: KC09 182015Z AUTO 30006KT 10SM OVC019 M03/M06 A3023 RMK AO2 T10291064
Loading
Personal Weather Stations






























Interactive Weather Map New forecast layout! Learn more

10-Day Weather Forecast

Advertisements
Track Severe Weather on mobile